Time;durP1;ratioP1;P1;durP2;ratioP2;P2;SDS_P1;SDS_P2;PMS_P1;PMS_P2;Temp;Humidity;BMP_temperature;BMP_pressure;BME280_temperature;BME280_humidity;BME280_pressure;Samples;Min_cycle;Max_cycle;Signal;HPM_P1;HPM_P2
2022/04/17 00:00:27;;;;;;;17.20;9.35;;;2.40;97.10;;;;;;5049865;28;20108;-90
2022/04/17 00:02:54;;;;;;;18.15;9.30;;;2.20;97.80;;;;;;5031731;28;20160;-89
2022/04/17 00:05:20;;;;;;;14.20;8.00;;;2.30;98.90;;;;;;5048075;28;20028;-87
2022/04/17 00:07:45;;;;;;;16.35;8.45;;;2.30;99.30;;;;;;5030224;28;20144;-88
2022/04/17 00:10:12;;;;;;;14.68;8.02;;;2.50;99.00;;;;;;5030935;28;20112;-89
2022/04/17 00:12:39;;;;;;;15.60;8.68;;;2.40;98.80;;;;;;5047552;28;20124;-89
2022/04/17 00:15:06;;;;;;;14.52;8.10;;;2.40;99.40;;;;;;5047070;28;20029;-89
2022/04/17 00:17:32;;;;;;;17.08;8.90;;;2.30;99.90;;;;;;5031113;28;20200;-89
2022/04/17 00:19:58;;;;;;;13.15;8.45;;;2.20;99.80;;;;;;5030415;28;20035;-89
2022/04/17 00:22:24;;;;;;;14.98;9.60;;;2.10;99.90;;;;;;5030383;28;20064;-88
2022/04/17 00:24:50;;;;;;;16.33;7.53;;;2.00;99.90;;;;;;5027487;28;20140;-89
2022/04/17 00:27:16;;;;;;;13.38;7.60;;;2.00;99.90;;;;;;5063700;28;20116;-89
2022/04/17 00:29:44;;;;;;;13.68;8.32;;;2.10;99.90;;;;;;5047204;28;20498;-90
2022/04/17 00:32:12;;;;;;;16.83;8.70;;;2.10;99.90;;;;;;5032996;28;20076;-89
2022/04/17 00:34:38;;;;;;;10.60;7.75;;;2.10;99.90;;;;;;5053548;28;20079;-88
2022/04/17 00:37:05;;;;;;;15.40;8.43;;;2.10;99.90;;;;;;5052418;28;20044;-89
2022/04/17 00:39:31;;;;;;;15.77;7.85;;;2.20;99.90;;;;;;5051404;28;20028;-89
2022/04/17 00:41:59;;;;;;;15.43;8.45;;;2.30;99.90;;;;;;5052798;28;20059;-89
2022/04/17 00:44:25;;;;;;;16.00;9.15;;;2.20;99.40;;;;;;5033697;28;20057;-89
2022/04/17 00:46:50;;;;;;;13.85;7.57;;;2.00;99.90;;;;;;5034233;28;20523;-88
2022/04/17 00:49:16;;;;;;;19.85;9.57;;;2.00;99.90;;;;;;5049676;28;20127;-88
2022/04/17 00:51:47;;;;;;;12.52;7.43;;;2.00;99.90;;;;;;5066492;28;20033;-89
2022/04/17 00:54:14;;;;;;;16.65;9.27;;;1.90;99.90;;;;;;5051193;28;20056;-88
2022/04/17 00:56:41;;;;;;;14.27;7.93;;;2.00;99.90;;;;;;5047944;28;20044;-88
2022/04/17 00:59:09;;;;;;;15.15;7.05;;;2.00;99.90;;;;;;5050463;28;20029;-89
2022/04/17 01:01:36;;;;;;;18.17;8.38;;;1.90;99.90;;;;;;5066345;28;20041;-90
2022/04/17 01:04:03;;;;;;;12.57;7.55;;;2.00;99.90;;;;;;5048621;28;20033;-88
2022/04/17 01:06:30;;;;;;;13.48;7.22;;;1.80;99.90;;;;;;5058936;28;20057;-89
2022/04/17 01:08:56;;;;;;;23.27;8.82;;;1.70;99.90;;;;;;5062869;28;20503;-89
2022/04/17 01:11:22;;;;;;;14.15;7.53;;;1.90;99.90;;;;;;5059009;28;20040;-89
2022/04/17 01:13:48;;;;;;;13.40;8.05;;;1.80;99.90;;;;;;5060262;28;20048;-88
2022/04/17 01:16:16;;;;;;;15.13;8.13;;;1.70;99.90;;;;;;5056031;28;20064;-89
2022/04/17 01:19:11;;;;;;;14.07;8.45;;;1.60;99.90;;;;;;5054314;28;20033;-89
2022/04/17 01:21:37;;;;;;;13.57;7.22;;;1.50;99.90;;;;;;5041331;28;20117;-88
2022/04/17 01:26:58;;;;;;;14.05;7.60;;;1.50;99.90;;;;;;5048851;28;20109;-88
2022/04/17 01:29:31;;;;;;;12.52;8.13;;;1.30;99.90;;;;;;5048965;28;20029;-89
2022/04/17 01:32:04;;;;;;;14.60;7.53;;;1.20;99.90;;;;;;5047644;28;20044;-90
2022/04/17 01:34:31;;;;;;;13.00;6.75;;;1.20;99.90;;;;;;5034676;28;20514;-88
2022/04/17 01:36:57;;;;;;;14.18;7.05;;;1.20;99.90;;;;;;5049394;28;20456;-87
2022/04/17 01:39:23;;;;;;;14.52;7.75;;;1.10;99.90;;;;;;5050387;28;20028;-90
2022/04/17 01:41:51;;;;;;;11.30;6.88;;;1.20;99.90;;;;;;5046807;28;20025;-89
2022/04/17 01:44:17;;;;;;;15.77;7.57;;;1.20;99.90;;;;;;5049978;28;20025;-89
2022/04/17 01:46:44;;;;;;;14.85;8.93;;;1.10;99.90;;;;;;5047413;28;20120;-89
2022/04/17 01:49:11;;;;;;;13.27;7.20;;;1.00;99.90;;;;;;5050307;28;20037;-89
2022/04/17 01:51:38;;;;;;;12.10;7.72;;;1.00;99.90;;;;;;5033793;28;20088;-88
2022/04/17 01:54:08;;;;;;;15.52;8.57;;;0.90;99.90;;;;;;5034946;28;20149;-88
2022/04/17 01:56:35;;;;;;;13.02;7.55;;;0.80;99.90;;;;;;5049520;28;20034;-88
2022/04/17 01:59:01;;;;;;;14.55;6.82;;;0.80;99.90;;;;;;5052222;28;20483;-88
2022/04/17 02:01:27;;;;;;;12.00;7.28;;;0.80;99.90;;;;;;5053788;28;20070;-89
2022/04/17 02:03:53;;;;;;;12.07;7.00;;;0.80;99.90;;;;;;5066501;28;20438;-88
2022/04/17 02:06:18;;;;;;;12.70;7.35;;;0.90;99.90;;;;;;5050420;28;20033;-88
2022/04/17 02:08:44;;;;;;;13.55;7.10;;;0.80;99.90;;;;;;5032044;28;20580;-89
2022/04/17 02:11:11;;;;;;;14.40;7.57;;;0.70;99.90;;;;;;5048979;28;20036;-89
2022/04/17 02:13:36;;;;;;;13.88;7.40;;;0.60;99.90;;;;;;5032883;28;20068;-88
2022/04/17 02:16:06;;;;;;;13.50;7.38;;;0.60;99.90;;;;;;5049940;28;20053;-87
2022/04/17 02:18:32;;;;;;;12.43;8.60;;;0.50;99.90;;;;;;5047440;28;20036;-87
2022/04/17 02:20:59;;;;;;;13.90;7.15;;;0.40;99.90;;;;;;5046024;28;20025;-89
2022/04/17 02:23:24;;;;;;;13.52;7.32;;;0.50;99.90;;;;;;5032498;28;20656;-88
2022/04/17 02:25:50;;;;;;;14.30;8.20;;;0.60;99.90;;;;;;5049325;28;20040;-87
2022/04/17 02:28:16;;;;;;;12.55;7.43;;;0.60;99.90;;;;;;5049179;28;20104;-87
2022/04/17 02:30:43;;;;;;;12.70;7.80;;;0.60;99.90;;;;;;5059732;28;20041;-89
2022/04/17 02:33:08;;;;;;;13.00;7.07;;;0.50;99.90;;;;;;5060270;28;20115;-87
2022/04/17 02:35:34;;;;;;;12.93;8.02;;;0.40;99.90;;;;;;5077917;28;20218;-87
2022/04/17 02:38:00;;;;;;;14.05;7.80;;;0.40;99.90;;;;;;5072920;28;20044;-88
2022/04/17 02:40:26;;;;;;;16.25;8.23;;;0.40;99.90;;;;;;5077450;28;20558;-88
2022/04/17 02:42:55;;;;;;;15.65;8.70;;;0.40;99.90;;;;;;5058509;28;20522;-88
2022/04/17 02:45:21;;;;;;;15.50;10.25;;;0.30;99.90;;;;;;5040232;28;20032;-87
2022/04/17 02:47:48;;;;;;;17.08;9.07;;;0.30;99.90;;;;;;5069245;28;20396;-89
2022/04/17 02:50:17;;;;;;;14.65;7.90;;;0.30;99.90;;;;;;5053542;28;20036;-88
2022/04/17 02:52:43;;;;;;;12.70;7.95;;;0.20;99.90;;;;;;5055566;28;20112;-87
2022/04/17 02:55:10;;;;;;;13.18;7.60;;;0.40;99.90;;;;;;5052688;28;20041;-87
2022/04/17 02:57:36;;;;;;;14.15;7.78;;;0.30;99.90;;;;;;5049754;28;20029;-86
2022/04/17 03:00:04;;;;;;;13.85;8.18;;;0.30;99.90;;;;;;5053659;28;20686;-87
2022/04/17 03:07:58;;;;;;;14.65;7.63;;;0.40;99.90;;;;;;5063325;28;20039;-88
2022/04/17 03:10:24;;;;;;;13.93;8.02;;;0.30;99.90;;;;;;5061611;28;20106;-89
2022/04/17 03:12:50;;;;;;;14.73;9.15;;;0.20;99.90;;;;;;5060837;28;20064;-89
2022/04/17 03:15:16;;;;;;;14.40;8.07;;;0.30;99.90;;;;;;5039424;28;20040;-88
2022/04/17 03:17:41;;;;;;;17.90;8.98;;;0.30;99.90;;;;;;5041545;28;20112;-87
2022/04/17 03:20:08;;;;;;;13.93;8.73;;;0.20;99.90;;;;;;5053526;28;20468;-87
2022/04/17 03:22:34;;;;;;;14.55;8.70;;;0.20;99.90;;;;;;5059158;28;20029;-88
2022/04/17 03:25:01;;;;;;;12.25;7.53;;;0.20;99.90;;;;;;5053364;28;20542;-87
2022/04/17 03:27:30;;;;;;;17.75;8.00;;;0.30;99.90;;;;;;5036266;28;20090;-88
2022/04/17 03:29:56;;;;;;;13.65;7.65;;;0.20;99.90;;;;;;5042783;28;20338;-88
2022/04/17 03:32:22;;;;;;;11.55;7.25;;;0.20;99.90;;;;;;5045301;28;20045;-87
2022/04/17 03:34:48;;;;;;;14.82;8.57;;;0.20;99.90;;;;;;5048076;28;20044;-90
2022/04/17 03:37:16;;;;;;;11.48;6.90;;;0.20;99.90;;;;;;5047698;28;20420;-88
2022/04/17 03:39:44;;;;;;;14.68;7.82;;;0.10;99.90;;;;;;5031967;28;20507;-89
2022/04/17 03:42:11;;;;;;;12.48;6.63;;;0.00;99.90;;;;;;5048527;28;20021;-88
2022/04/17 03:44:36;;;;;;;14.35;7.93;;;0.00;99.90;;;;;;5030830;28;20021;-88
2022/04/17 03:47:02;;;;;;;13.60;8.38;;;-0.10;99.90;;;;;;5047771;28;20050;-88
2022/04/17 03:49:29;;;;;;;17.58;8.05;;;-0.10;99.90;;;;;;5046889;28;20045;-87
2022/04/17 03:51:55;;;;;;;16.75;9.18;;;-0.20;99.90;;;;;;5047912;28;20028;-87
2022/04/17 03:54:21;;;;;;;16.08;8.40;;;-0.30;99.90;;;;;;5047625;28;20025;-89
2022/04/17 03:56:47;;;;;;;12.48;7.95;;;-0.30;99.90;;;;;;5027932;28;20123;-87
2022/04/17 03:59:13;;;;;;;17.60;7.93;;;-0.40;99.90;;;;;;5030956;28;20029;-87
2022/04/17 04:01:39;;;;;;;16.48;8.18;;;-0.50;99.90;;;;;;5046974;28;20040;-89
2022/04/17 04:04:06;;;;;;;17.85;8.48;;;-0.50;99.90;;;;;;5050456;28;21301;-88
2022/04/17 04:06:33;;;;;;;14.90;7.32;;;-0.50;99.90;;;;;;5053847;28;20025;-87
2022/04/17 04:08:58;;;;;;;15.52;6.85;;;-0.60;99.90;;;;;;5069739;28;20080;-87
2022/04/17 04:11:24;;;;;;;12.57;7.72;;;-0.50;99.90;;;;;;5038320;28;20057;-87
2022/04/17 04:13:50;;;;;;;15.15;8.13;;;-0.40;99.90;;;;;;5049418;28;20116;-89
2022/04/17 04:16:15;;;;;;;20.60;8.43;;;-0.40;99.90;;;;;;5050591;28;20562;-87
2022/04/17 04:18:41;;;;;;;15.68;8.20;;;-0.50;99.90;;;;;;5049438;28;20044;-88
2022/04/17 04:21:07;;;;;;;19.17;8.68;;;-0.50;99.90;;;;;;5031335;28;20048;-87
2022/04/17 04:23:35;;;;;;;12.98;7.45;;;-0.50;99.90;;;;;;5045260;28;20021;-88
2022/04/17 04:26:02;;;;;;;15.95;7.78;;;-0.60;99.90;;;;;;5045865;28;20033;-87
2022/04/17 04:28:36;;;;;;;12.02;7.38;;;-0.60;99.90;;;;;;5037881;28;20040;-87
2022/04/17 04:31:02;;;;;;;12.25;7.32;;;-0.50;99.90;;;;;;5041763;28;20132;-87
2022/04/17 04:33:31;;;;;;;12.80;7.32;;;-0.60;99.90;;;;;;5031401;28;20036;-88
2022/04/17 04:35:58;;;;;;;12.55;8.18;;;-0.50;99.90;;;;;;5047751;28;20044;-87
2022/04/17 04:38:24;;;;;;;12.98;7.57;;;-0.40;99.90;;;;;;5048902;28;20555;-87
2022/04/17 04:40:51;;;;;;;16.98;8.48;;;-0.40;99.90;;;;;;5050922;28;20105;-87
2022/04/17 04:43:17;;;;;;;13.10;6.82;;;-0.30;99.90;;;;;;5032437;28;20021;-86
2022/04/17 04:51:13;;;;;;;14.60;7.13;;;-0.10;99.90;;;;;;5066536;28;20031;-88
2022/04/17 04:53:39;;;;;;;11.90;6.97;;;-0.20;99.90;;;;;;5046935;28;20065;-87
2022/04/17 04:56:05;;;;;;;17.30;9.05;;;-0.30;99.90;;;;;;5049413;28;20040;-89
2022/04/17 04:58:31;;;;;;;14.43;8.25;;;-0.20;99.90;;;;;;5032252;28;20017;-87
2022/04/17 05:00:56;;;;;;;12.90;7.43;;;0.00;99.90;;;;;;5030690;28;20534;-89
2022/04/17 05:03:22;;;;;;;12.60;7.03;;;0.10;99.90;;;;;;5032838;28;20112;-89
2022/04/17 05:05:48;;;;;;;13.48;8.20;;;0.20;99.90;;;;;;5047724;28;20136;-88
2022/04/17 05:08:13;;;;;;;13.35;7.20;;;0.30;99.90;;;;;;5047583;28;20029;-89
2022/04/17 05:10:39;;;;;;;14.00;7.00;;;0.30;99.90;;;;;;5030872;28;20035;-87
2022/04/17 05:13:05;;;;;;;12.48;6.97;;;0.40;99.90;;;;;;5030611;28;20065;-89
2022/04/17 05:15:31;;;;;;;13.68;8.30;;;0.50;99.90;;;;;;5030372;28;20033;-88
2022/04/17 05:17:57;;;;;;;14.20;8.25;;;0.40;99.90;;;;;;5049324;28;20029;-87
2022/04/17 05:20:22;;;;;;;13.93;7.95;;;0.40;99.90;;;;;;5031447;28;20027;-89
2022/04/17 05:22:56;;;;;;;14.57;7.60;;;0.40;99.90;;;;;;5052578;28;20029;-87
2022/04/17 05:25:22;;;;;;;13.38;7.75;;;0.60;99.90;;;;;;5035396;28;20033;-88
2022/04/17 05:27:48;;;;;;;10.93;7.20;;;0.80;99.90;;;;;;5047951;28;20033;-87
2022/04/17 05:30:14;;;;;;;13.32;7.65;;;0.80;99.90;;;;;;5044655;28;20178;-88
2022/04/17 05:32:40;;;;;;;12.38;7.78;;;0.90;99.90;;;;;;5043143;28;20049;-87
2022/04/17 05:35:06;;;;;;;12.70;7.00;;;1.00;99.90;;;;;;5042087;28;20036;-87
2022/04/17 05:37:31;;;;;;;10.20;7.03;;;0.90;99.90;;;;;;5043517;28;20029;-89
2022/04/17 05:39:57;;;;;;;12.32;7.68;;;0.90;99.90;;;;;;5041255;28;20492;-88
2022/04/17 05:42:23;;;;;;;13.60;8.02;;;0.90;99.90;;;;;;5040144;28;20029;-88
2022/04/17 05:44:52;;;;;;;10.10;6.85;;;1.00;99.90;;;;;;5036620;28;20034;-88
2022/04/17 05:47:18;;;;;;;11.93;7.28;;;1.20;99.90;;;;;;5042562;28;20021;-87
2022/04/17 05:49:43;;;;;;;10.93;6.90;;;1.20;99.90;;;;;;5036631;28;20040;-88
2022/04/17 05:52:11;;;;;;;12.95;7.15;;;1.30;99.90;;;;;;5040552;28;20040;-89
2022/04/17 05:54:37;;;;;;;13.70;8.35;;;1.30;99.90;;;;;;5035494;28;20021;-88
2022/04/17 05:57:02;;;;;;;13.15;8.23;;;1.30;99.90;;;;;;5045192;28;20037;-88
2022/04/17 05:59:28;;;;;;;13.15;7.18;;;1.30;99.90;;;;;;5034989;28;20053;-86
2022/04/17 06:01:54;;;;;;;12.48;7.35;;;1.30;99.90;;;;;;5056989;28;20037;-87
2022/04/17 06:04:19;;;;;;;14.02;8.77;;;1.40;99.90;;;;;;5058599;28;20065;-87
2022/04/17 06:06:45;;;;;;;12.05;5.53;;;1.60;99.90;;;;;;5060862;28;20084;-89
2022/04/17 06:09:10;;;;;;;13.30;7.78;;;1.70;99.90;;;;;;5055079;28;20403;-88
2022/04/17 06:11:36;;;;;;;13.02;7.72;;;1.80;99.90;;;;;;5059322;28;20174;-88
2022/04/17 06:14:02;;;;;;;15.27;8.57;;;1.80;99.90;;;;;;5058574;28;20458;-89
2022/04/17 06:16:28;;;;;;;10.18;5.82;;;1.90;99.90;;;;;;5049532;28;21103;-88
2022/04/17 06:18:54;;;;;;;13.75;7.60;;;1.90;99.90;;;;;;5059977;28;20032;-88
2022/04/17 06:21:19;;;;;;;14.23;5.68;;;1.90;99.90;;;;;;5044668;28;20055;-89
2022/04/17 06:23:45;;;;;;;15.20;8.05;;;1.90;99.90;;;;;;5047673;28;20072;-88
2022/04/17 06:26:11;;;;;;;10.35;6.30;;;2.10;99.90;;;;;;5033260;28;20029;-89
2022/04/17 06:28:37;;;;;;;14.40;7.07;;;2.10;99.90;;;;;;5038672;28;20109;-89
2022/04/17 06:31:04;;;;;;;11.60;7.60;;;2.20;99.90;;;;;;5036861;28;20036;-88
2022/04/17 06:33:30;;;;;;;12.75;6.35;;;2.40;99.90;;;;;;5065337;28;20032;-89
2022/04/17 06:35:55;;;;;;;12.90;7.40;;;2.50;99.90;;;;;;5058681;28;20263;-88
2022/04/17 06:38:22;;;;;;;12.77;7.50;;;2.60;99.90;;;;;;5065705;28;20020;-88
2022/04/17 06:40:48;;;;;;;13.15;7.63;;;2.80;99.90;;;;;;5058897;28;20021;-87
2022/04/17 06:43:14;;;;;;;9.68;5.78;;;2.80;99.90;;;;;;5076820;28;20082;-87
2022/04/17 06:45:40;;;;;;;12.65;8.30;;;2.80;99.90;;;;;;5056569;28;20388;-87
2022/04/17 06:48:16;;;;;;;15.45;8.07;;;3.00;99.90;;;;;;5056384;28;20100;-89
2022/04/17 06:50:46;;;;;;;11.88;6.53;;;3.30;99.90;;;;;;5051421;28;20036;-88
2022/04/17 06:53:12;;;;;;;11.80;6.63;;;3.50;99.90;;;;;;5040338;28;20029;-88
2022/04/17 06:55:38;;;;;;;11.57;6.45;;;3.60;99.30;;;;;;5050411;28;20049;-89
2022/04/17 06:58:05;;;;;;;8.90;5.07;;;3.80;98.40;;;;;;5050677;28;20025;-88
2022/04/17 07:00:31;;;;;;;10.60;6.20;;;3.90;97.10;;;;;;5058082;28;20538;-90
2022/04/17 07:02:57;;;;;;;7.03;4.80;;;3.90;96.50;;;;;;5041177;28;20029;-90
2022/04/17 07:05:23;;;;;;;13.57;7.03;;;4.00;95.80;;;;;;5041701;28;20025;-89
2022/04/17 07:07:58;;;;;;;13.40;6.05;;;4.10;96.30;;;;;;5064965;28;20048;-88
2022/04/17 07:10:23;;;;;;;9.05;5.57;;;4.20;94.70;;;;;;5051754;28;20037;-88
2022/04/17 07:12:49;;;;;;;12.35;6.00;;;4.30;94.90;;;;;;5058574;28;20041;-88
2022/04/17 07:15:15;;;;;;;10.80;5.35;;;4.30;94.80;;;;;;5065539;28;20132;-88
2022/04/17 07:17:41;;;;;;;10.05;5.50;;;4.40;94.00;;;;;;5060649;28;20025;-90
2022/04/17 07:20:08;;;;;;;9.80;5.65;;;4.50;93.60;;;;;;5029433;28;20144;-87
2022/04/17 07:22:35;;;;;;;9.05;5.22;;;4.70;91.20;;;;;;5055047;28;20032;-90
2022/04/17 07:25:02;;;;;;;10.95;5.47;;;4.90;91.90;;;;;;5045144;28;20029;-85
2022/04/17 07:27:34;;;;;;;6.88;3.75;;;4.90;91.40;;;;;;5047657;28;20365;-88
2022/04/17 07:29:59;;;;;;;7.70;5.47;;;5.10;90.80;;;;;;5041503;28;20124;-91
2022/04/17 07:32:25;;;;;;;6.90;3.45;;;5.20;88.90;;;;;;5051496;28;20579;-88
2022/04/17 07:34:50;;;;;;;7.53;5.00;;;5.20;87.60;;;;;;5055520;28;20032;-88
2022/04/17 07:37:27;;;;;;;8.02;4.15;;;5.40;88.20;;;;;;5049814;28;20491;-90
2022/04/17 07:39:53;;;;;;;10.02;5.70;;;5.50;85.40;;;;;;5041785;28;20024;-90
2022/04/17 07:42:20;;;;;;;34.08;6.00;;;5.60;87.00;;;;;;5082161;28;20033;-87
2022/04/17 07:44:47;;;;;;;8.75;4.93;;;6.00;84.70;;;;;;5084866;28;20515;-87
2022/04/17 07:47:13;;;;;;;8.52;4.68;;;5.90;83.60;;;;;;5056466;28;20029;-88
2022/04/17 07:49:38;;;;;;;10.05;5.65;;;5.80;83.70;;;;;;5033566;28;20517;-89
2022/04/17 07:52:05;;;;;;;8.38;5.22;;;5.90;80.70;;;;;;5053011;28;20033;-91
2022/04/17 07:54:30;;;;;;;7.68;4.65;;;6.10;83.90;;;;;;5042786;28;20044;-88
2022/04/17 07:56:56;;;;;;;8.40;6.07;;;6.20;75.50;;;;;;5042500;28;20032;-87
2022/04/17 07:59:24;;;;;;;8.20;4.43;;;6.20;79.70;;;;;;5041480;28;20454;-86
2022/04/17 08:01:50;;;;;;;8.98;4.53;;;6.70;71.90;;;;;;5054100;28;20261;-86
2022/04/17 08:04:16;;;;;;;7.75;4.82;;;6.60;71.60;;;;;;5036246;28;20717;-86
2022/04/17 08:06:42;;;;;;;8.60;4.70;;;6.80;71.10;;;;;;5057788;28;20041;-87
2022/04/17 08:09:07;;;;;;;10.05;4.80;;;6.70;67.70;;;;;;5055257;28;20502;-86
2022/04/17 08:11:34;;;;;;;6.15;4.25;;;6.80;69.90;;;;;;5050130;28;20064;-85
2022/04/17 08:13:59;;;;;;;6.95;4.38;;;6.90;70.00;;;;;;5051601;28;20040;-83
2022/04/17 08:16:25;;;;;;;6.55;4.97;;;7.00;68.30;;;;;;5034843;28;20029;-85
2022/04/17 08:18:51;;;;;;;8.00;4.75;;;7.10;68.80;;;;;;5049478;28;20542;-85
2022/04/17 08:21:16;;;;;;;8.48;4.97;;;7.10;67.00;;;;;;5050177;28;20028;-85
2022/04/17 08:23:42;;;;;;;8.13;4.68;;;7.10;66.70;;;;;;5046155;28;20083;-80
2022/04/17 08:26:08;;;;;;;9.30;5.00;;;7.30;65.20;;;;;;5046161;28;20029;-82
2022/04/17 08:28:34;;;;;;;10.23;6.10;;;7.40;63.10;;;;;;5059303;28;20022;-90
2022/04/17 08:30:59;;;;;;;8.15;4.50;;;7.50;62.80;;;;;;5089347;28;20052;-88
2022/04/17 08:33:26;;;;;;;7.03;4.68;;;7.60;63.20;;;;;;5073842;28;20024;-88
2022/04/17 08:35:53;;;;;;;10.55;4.82;;;7.90;62.90;;;;;;5069961;28;20062;-90
2022/04/17 08:38:21;;;;;;;6.28;4.63;;;8.10;64.90;;;;;;5072011;28;20022;-88
2022/04/17 08:40:48;;;;;;;8.95;4.50;;;8.30;62.90;;;;;;5087011;28;20031;-89
2022/04/17 08:43:17;;;;;;;6.25;3.78;;;8.10;60.50;;;;;;5096849;28;20020;-89
2022/04/17 08:45:43;;;;;;;9.55;5.20;;;8.20;60.60;;;;;;5069738;28;20025;-92
2022/04/17 08:48:09;;;;;;;9.88;4.55;;;8.40;57.90;;;;;;5050518;28;20029;-86
2022/04/17 08:50:35;;;;;;;41.28;4.38;;;8.60;57.80;;;;;;5074700;28;20059;-87
2022/04/17 08:53:02;;;;;;;6.55;4.72;;;8.50;55.50;;;;;;5050070;28;20033;-87
2022/04/17 08:55:28;;;;;;;5.40;4.18;;;8.60;59.20;;;;;;5082803;28;20017;-86
2022/04/17 08:57:54;;;;;;;8.07;5.72;;;8.40;58.20;;;;;;5052799;28;20025;-90
2022/04/17 09:00:20;;;;;;;7.15;5.40;;;8.30;59.10;;;;;;5051768;28;20107;-86
2022/04/17 09:02:48;;;;;;;5.70;3.53;;;8.50;61.10;;;;;;5051668;28;20080;-88
2022/04/17 09:05:16;;;;;;;7.95;4.63;;;9.00;59.60;;;;;;5052719;28;20040;-87
2022/04/17 09:07:47;;;;;;;6.78;4.25;;;9.10;57.90;;;;;;5053784;28;20037;-88
2022/04/17 09:10:23;;;;;;;;;;;8.90;55.70;;;;;;5045900;28;20550;-89
2022/04/17 09:12:52;;;;;;;8.95;4.68;;;8.90;56.10;;;;;;5052905;28;19917;-87
2022/04/17 09:15:21;;;;;;;7.85;4.47;;;9.10;54.10;;;;;;5048354;28;20029;-87
2022/04/17 09:17:48;;;;;;;7.95;4.38;;;9.20;54.50;;;;;;5034895;28;20778;-87
2022/04/17 09:20:22;;;;;;;6.15;4.45;;;9.10;52.30;;;;;;5052155;28;20453;-87
2022/04/17 09:22:49;;;;;;;7.82;4.18;;;9.40;52.50;;;;;;5068154;28;20102;-88
2022/04/17 09:25:16;;;;;;;7.55;3.78;;;9.80;53.70;;;;;;5055793;28;20029;-88
2022/04/17 09:28:01;;;;;;;7.38;4.40;;;9.70;50.50;;;;;;5062897;28;20040;-89
2022/04/17 09:30:34;;;;;;;5.53;3.30;;;9.50;51.60;;;;;;5046231;28;20119;-87
2022/04/17 09:33:12;;;;;;;7.47;4.18;;;9.70;53.00;;;;;;5051159;28;20044;-88
2022/04/17 09:35:39;;;;;;;9.30;5.00;;;9.90;50.20;;;;;;5056037;28;20039;-89
2022/04/17 09:38:07;;;;;;;8.13;5.53;;;9.90;51.60;;;;;;5047486;28;20531;-88
2022/04/17 09:40:33;;;;;;;9.55;4.78;;;10.00;53.80;;;;;;5055331;28;20060;-87
2022/04/17 09:43:13;;;;;;;6.70;4.60;;;10.20;53.10;;;;;;5065871;28;20110;-87
2022/04/17 09:46:00;;;;;;;8.73;5.32;;;10.20;52.30;;;;;;5055870;28;20033;-88
2022/04/17 09:48:35;;;;;;;12.05;4.90;;;10.50;52.10;;;;;;5053727;28;20025;-94
2022/04/17 09:51:18;;;;;;;6.88;4.45;;;10.70;50.20;;;;;;5038608;28;20126;-90
2022/04/17 09:53:57;;;;;;;8.10;4.60;;;10.60;48.70;;;;;;5053831;28;20560;-84
2022/04/17 09:56:39;;;;;;;6.68;3.63;;;10.80;47.20;;;;;;5048257;28;20075;-84
2022/04/17 09:59:24;;;;;;;4.78;3.03;;;10.70;47.90;;;;;;5049166;28;20127;-84
2022/04/17 10:01:52;;;;;;;7.55;3.67;;;11.00;46.70;;;;;;5063514;28;20052;-84
2022/04/17 10:04:21;;;;;;;5.30;3.00;;;10.90;43.60;;;;;;5055875;28;20488;-91
2022/04/17 10:06:52;;;;;;;5.47;3.55;;;10.90;43.50;;;;;;5030741;28;20501;-80
2022/04/17 10:09:18;;;;;;;5.93;3.00;;;11.30;44.20;;;;;;5080509;28;20527;-86
2022/04/17 10:11:44;;;;;;;5.43;3.22;;;11.00;43.70;;;;;;5056179;28;20033;-87
2022/04/17 10:14:10;;;;;;;6.60;4.00;;;11.30;44.60;;;;;;5046173;28;20461;-87
2022/04/17 10:16:43;;;;;;;5.82;3.38;;;11.40;44.70;;;;;;5043604;28;20075;-87
2022/04/17 10:19:17;;;;;;;6.45;3.78;;;11.50;42.80;;;;;;5047461;28;20021;-86
2022/04/17 10:21:45;;;;;;;3.72;2.95;;;11.80;43.40;;;;;;5049777;28;20041;-87
2022/04/17 10:24:19;;;;;;;6.57;3.47;;;12.10;41.50;;;;;;5058842;28;20041;-86
2022/04/17 10:26:46;;;;;;;4.35;3.30;;;11.90;41.20;;;;;;5066151;28;20036;-87
2022/04/17 10:29:40;;;;;;;5.00;3.53;;;11.70;41.20;;;;;;5060043;28;20149;-79
2022/04/17 10:32:35;;;;;;;7.07;3.13;;;11.80;41.90;;;;;;5069462;28;20715;-86
2022/04/17 10:35:28;;;;;;;4.32;2.83;;;11.70;40.60;;;;;;5041322;28;20032;-87
2022/04/17 10:38:42;;;;;;;5.55;3.10;;;11.90;41.30;;;;;;5068864;28;20024;-87
2022/04/17 10:41:12;;;;;;;6.57;3.65;;;12.20;39.90;;;;;;5061065;28;20047;-86
2022/04/17 10:43:47;;;;;;;6.85;3.97;;;12.60;42.10;;;;;;5051520;28;20044;-86
2022/04/17 10:46:16;;;;;;;4.43;3.08;;;12.90;37.20;;;;;;5052321;28;20029;-84
2022/04/17 10:48:44;;;;;;;5.13;3.40;;;12.50;36.50;;;;;;5051806;28;20037;-85
2022/04/17 10:51:19;;;;;;;5.53;3.28;;;12.70;37.70;;;;;;5050057;28;20152;-85
2022/04/17 10:54:05;;;;;;;6.10;2.80;;;13.10;37.20;;;;;;5053064;28;20043;-85
2022/04/17 10:56:35;;;;;;;4.50;2.80;;;13.50;37.30;;;;;;5050750;28;20049;-85
2022/04/17 10:59:14;;;;;;;4.88;3.13;;;13.40;35.10;;;;;;5052458;28;20024;-86
2022/04/17 11:01:43;;;;;;;4.43;2.90;;;13.40;33.30;;;;;;5071355;28;20037;-86
2022/04/17 11:04:16;;;;;;;4.85;2.83;;;13.50;33.00;;;;;;5056937;28;20571;-86
2022/04/17 11:06:42;;;;;;;2.97;2.53;;;13.70;32.60;;;;;;5056911;28;20102;-85
2022/04/17 11:09:14;;;;;;;4.13;2.50;;;13.80;34.70;;;;;;5083243;28;20036;-85
2022/04/17 11:11:43;;;;;;;4.50;2.88;;;14.30;32.90;;;;;;5041724;28;20031;-85
2022/04/17 11:14:11;;;;;;;4.78;3.53;;;14.40;30.70;;;;;;5040112;28;20507;-85
2022/04/17 11:16:46;;;;;;;4.63;3.67;;;14.30;32.00;;;;;;5051639;28;20086;-86
2022/04/17 11:19:13;;;;;;;3.97;2.40;;;15.00;32.00;;;;;;5048871;28;20025;-87
2022/04/17 11:21:50;;;;;;;5.22;2.72;;;14.70;31.90;;;;;;5041432;28;20529;-86
2022/04/17 11:24:17;;;;;;;4.97;3.50;;;15.00;32.10;;;;;;5049188;28;20029;-86
2022/04/17 11:26:54;;;;;;;4.47;3.40;;;15.30;29.90;;;;;;5046315;28;20063;-86
2022/04/17 11:29:37;;;;;;;5.03;3.67;;;14.90;30.80;;;;;;5048299;28;20095;-85
2022/04/17 11:32:32;;;;;;;7.60;4.40;;;15.30;29.90;;;;;;5044458;28;20079;-88
2022/04/17 11:35:02;;;;;;;5.32;3.55;;;15.20;29.70;;;;;;5039440;28;20032;-85
2022/04/17 11:37:29;;;;;;;;;;;15.10;30.20;;;;;;5083176;28;20055;-85
2022/04/17 11:39:57;;;;;;;5.30;3.50;;;15.30;31.70;;;;;;5037658;28;20297;-85
2022/04/17 11:42:28;;;;;;;5.88;3.38;;;15.50;29.90;;;;;;5042628;28;20571;-85
2022/04/17 11:45:00;;;;;;;4.18;3.50;;;15.70;30.70;;;;;;5042908;28;20037;-85
2022/04/17 11:47:26;;;;;;;5.28;3.45;;;15.70;29.30;;;;;;5043656;28;20115;-84
2022/04/17 11:49:52;;;;;;;5.32;3.78;;;15.70;29.80;;;;;;5035259;28;20581;-84
2022/04/17 11:52:20;;;;;;;6.28;3.40;;;16.20;29.60;;;;;;5031018;28;20581;-85
2022/04/17 11:54:47;;;;;;;5.72;3.30;;;16.10;29.60;;;;;;5040054;28;20087;-87
2022/04/17 11:57:14;;;;;;;5.25;3.55;;;15.60;30.30;;;;;;5037441;28;20052;-85
2022/04/17 11:59:48;;;;;;;5.97;3.65;;;16.00;29.90;;;;;;5049466;28;20021;-86
2022/04/17 12:02:16;;;;;;;4.93;3.28;;;16.30;30.30;;;;;;5034270;28;20037;-86
2022/04/17 12:04:47;;;;;;;3.97;3.22;;;16.70;28.20;;;;;;5037922;28;20025;-86
2022/04/17 12:07:24;;;;;;;4.88;3.10;;;16.80;29.50;;;;;;5040121;28;20032;-85
2022/04/17 12:10:02;;;;;;;4.18;3.33;;;16.60;29.70;;;;;;5032523;28;20388;-87
2022/04/17 12:12:37;;;;;;;6.18;3.78;;;17.50;28.20;;;;;;5032609;28;20033;-84
2022/04/17 12:15:04;;;;;;;6.57;3.55;;;16.90;28.70;;;;;;5021795;28;20055;-86
2022/04/17 12:17:32;;;;;;;2.42;2.17;;;17.70;28.90;;;;;;5030280;28;20076;-88
2022/04/17 12:19:58;;;;;;;3.92;2.28;;;17.80;26.10;;;;;;5026614;28;20116;-85
2022/04/17 12:22:24;;;;;;;5.72;3.58;;;17.70;25.60;;;;;;5016997;28;20025;-85
2022/04/17 12:24:50;;;;;;;4.93;3.17;;;17.50;26.40;;;;;;5026748;28;20033;-86
2022/04/17 12:27:19;;;;;;;6.10;2.97;;;17.50;28.40;;;;;;5019871;28;20120;-85
2022/04/17 12:29:57;;;;;;;6.05;3.40;;;17.50;28.30;;;;;;5017440;28;20033;-85
2022/04/17 12:32:24;;;;;;;7.15;3.42;;;17.80;27.70;;;;;;5044150;28;20459;-84
2022/04/17 12:35:00;;;;;;;6.97;3.70;;;17.60;27.80;;;;;;5051769;28;20120;-85
2022/04/17 12:37:35;;;;;;;4.07;3.03;;;17.70;28.00;;;;;;5044775;28;20064;-89
2022/04/17 12:40:18;;;;;;;5.07;3.20;;;17.90;28.40;;;;;;5070087;28;20063;-86
2022/04/17 12:42:44;;;;;;;6.90;2.92;;;17.40;27.60;;;;;;5064737;28;20029;-91
2022/04/17 12:45:21;;;;;;;5.20;2.97;;;17.70;28.30;;;;;;5049234;28;20055;-83
2022/04/17 12:48:06;;;;;;;3.92;2.85;;;18.10;28.90;;;;;;5059437;28;20028;-81
2022/04/17 12:50:33;;;;;;;3.05;2.30;;;18.50;27.90;;;;;;5049962;28;20025;-81
2022/04/17 12:53:00;;;;;;;3.75;2.60;;;18.90;26.60;;;;;;5032866;28;20055;-81
2022/04/17 12:55:36;;;;;;;8.27;3.03;;;19.20;26.40;;;;;;5052239;28;20017;-79
2022/04/17 12:58:02;;;;;;;4.95;2.90;;;19.60;27.10;;;;;;5047972;28;20055;-83
2022/04/17 13:00:29;;;;;;;5.32;3.05;;;19.10;26.40;;;;;;5065317;28;20491;-86
2022/04/17 13:03:13;;;;;;;4.80;3.30;;;19.90;25.50;;;;;;5066051;28;20017;-87
2022/04/17 13:05:39;;;;;;;4.45;3.40;;;19.50;25.40;;;;;;5030068;28;20053;-83
2022/04/17 13:08:06;;;;;;;3.83;2.92;;;19.20;25.50;;;;;;5051252;28;20033;-85